createdAt,value
2023-02-07T00:02:11.078Z,101330.69
2023-02-07T00:04:37.712Z,101324.25
2023-02-07T00:07:04.146Z,101329.25
2023-02-07T00:09:31.030Z,101329.09
2023-02-07T00:11:57.434Z,101337.81
2023-02-07T00:14:23.939Z,101339.25
2023-02-07T00:16:50.604Z,101335.59
2023-02-07T00:19:17.056Z,101340.59
2023-02-07T00:21:45.959Z,101338.16
2023-02-07T00:24:12.370Z,101348.34
2023-02-07T00:26:38.937Z,101343.31
2023-02-07T00:29:05.772Z,101334.78
2023-02-07T00:31:32.603Z,101336.59
2023-02-07T00:33:59.194Z,101336.09
2023-02-07T00:36:25.692Z,101350.34
2023-02-07T00:38:52.126Z,101352.03
2023-02-07T00:41:18.655Z,101347.09
2023-02-07T00:43:45.189Z,101345.06
2023-02-07T00:46:11.617Z,101339.56
2023-02-07T00:48:39.522Z,101345.28
2023-02-07T00:51:06.899Z,101339.56
2023-02-07T00:53:33.339Z,101336.34
2023-02-07T00:56:00.132Z,101335.75
2023-02-07T00:58:26.535Z,101339.53
2023-02-07T01:00:53.449Z,101337.41
2023-02-07T01:03:20.044Z,101343.31
2023-02-07T01:05:46.860Z,101341.03
2023-02-07T01:08:13.326Z,101331.03
2023-02-07T01:10:39.777Z,101320.31
2023-02-07T01:13:06.205Z,101307.16
2023-02-07T01:15:33.338Z,101305.06
2023-02-07T01:18:00.530Z,101306.81
2023-02-07T01:20:27.236Z,101294.44
2023-02-07T01:22:53.968Z,101284.03
2023-02-07T01:25:20.385Z,101295.41
2023-02-07T01:27:47.358Z,101290.56
2023-02-07T01:30:13.929Z,101278.66
2023-02-07T01:32:40.338Z,101280.19
2023-02-07T01:35:06.831Z,101283.28
2023-02-07T01:37:33.217Z,101275.38
2023-02-07T01:39:59.811Z,101274.09
2023-02-07T01:42:26.279Z,101270.94
2023-02-07T01:44:52.755Z,101262.97
2023-02-07T01:47:19.233Z,101263.44
2023-02-07T01:49:45.971Z,101269.88
2023-02-07T01:52:12.444Z,101268.41
2023-02-07T01:54:39.096Z,101268.13
2023-02-07T01:57:10.314Z,101271.22
2023-02-07T01:59:38.349Z,101268.47
2023-02-07T02:02:05.047Z,101268.34
2023-02-07T02:04:31.544Z,101275.91
2023-02-07T02:06:58.457Z,101288.72
2023-02-07T02:09:25.148Z,101295.66
2023-02-07T02:11:51.786Z,101285.94
2023-02-07T02:14:18.189Z,101304.44
2023-02-07T02:16:44.615Z,101300.63
2023-02-07T02:19:11.112Z,101303.25
2023-02-07T02:21:37.706Z,101303.22
2023-02-07T02:24:04.186Z,101314.72
2023-02-07T02:26:30.621Z,101314.88
2023-02-07T02:28:57.164Z,101300.97
2023-02-07T02:31:23.637Z,101308.28
2023-02-07T02:33:50.223Z,101290.59
2023-02-07T02:36:16.591Z,101282.06
2023-02-07T02:38:43.136Z,101293.75
2023-02-07T02:41:09.525Z,101298.94
2023-02-07T02:43:35.928Z,101287.69
2023-02-07T02:46:03.018Z,101282.75
2023-02-07T02:48:29.615Z,101262.97
2023-02-07T02:50:56.046Z,101270.31
2023-02-07T02:53:23.156Z,101265.66
2023-02-07T02:55:49.614Z,101260.66
2023-02-07T02:58:16.689Z,101261.84
2023-02-07T03:00:43.189Z,101241.91
2023-02-07T03:03:10.064Z,101230.44
2023-02-07T03:05:36.912Z,101224.97
2023-02-07T03:08:03.560Z,101223.06
2023-02-07T03:10:29.983Z,101237.31
2023-02-07T03:12:56.392Z,101235.44
2023-02-07T03:15:22.829Z,101226.84
2023-02-07T03:17:49.368Z,101218.59
2023-02-07T03:20:17.358Z,101226.72
2023-02-07T03:22:43.771Z,101233.44
2023-02-07T03:25:10.292Z,101237.25
2023-02-07T03:27:36.856Z,101235.13
2023-02-07T03:30:03.457Z,101252.00
2023-02-07T03:32:31.925Z,101248.50
2023-02-07T03:34:58.309Z,101256.41
2023-02-07T03:37:25.159Z,101247.09
2023-02-07T03:39:51.532Z,101255.16
2023-02-07T03:42:18.137Z,101262.50
2023-02-07T03:44:46.886Z,101259.53
2023-02-07T03:47:13.308Z,101261.84
2023-02-07T03:49:40.446Z,101264.06
2023-02-07T03:52:07.064Z,101255.69
2023-02-07T03:54:33.472Z,101265.53
2023-02-07T03:57:00.064Z,101261.66
2023-02-07T03:59:26.503Z,101276.59
2023-02-07T04:01:53.011Z,101274.13
2023-02-07T04:04:19.396Z,101277.81
2023-02-07T04:06:45.884Z,101274.94
2023-02-07T04:09:12.442Z,101274.28
2023-02-07T04:11:40.070Z,101274.81
2023-02-07T04:14:06.722Z,101272.53
2023-02-07T04:16:33.210Z,101259.09
2023-02-07T04:19:00.047Z,101261.91
2023-02-07T04:21:26.507Z,101266.19
2023-02-07T04:23:53.366Z,101256.47
2023-02-07T04:26:19.782Z,101259.38
2023-02-07T04:28:46.556Z,101263.25
2023-02-07T04:31:13.243Z,101270.72
2023-02-07T04:33:39.670Z,101272.53
2023-02-07T04:36:06.128Z,101267.25
2023-02-07T04:38:32.522Z,101270.16
2023-02-07T04:40:58.938Z,101268.75
2023-02-07T04:43:25.831Z,101271.34
2023-02-07T04:45:52.279Z,101272.25
2023-02-07T04:48:18.906Z,101277.94
2023-02-07T04:50:45.270Z,101279.53
2023-02-07T04:53:13.791Z,101289.81
2023-02-07T04:55:40.354Z,101283.47
2023-02-07T04:58:06.992Z,101275.84
2023-02-07T05:00:33.666Z,101282.03
2023-02-07T05:03:00.888Z,101283.94
2023-02-07T05:05:27.421Z,101283.06
2023-02-07T05:07:54.451Z,101292.84
2023-02-07T05:10:20.854Z,101289.81
2023-02-07T05:12:48.798Z,101299.47
2023-02-07T05:15:15.185Z,101302.75
2023-02-07T05:17:44.059Z,101306.25
2023-02-07T05:20:10.526Z,101305.19
2023-02-07T05:22:37.125Z,101304.38
2023-02-07T05:25:03.576Z,101306.63
2023-02-07T05:27:30.440Z,101305.78
2023-02-07T05:29:56.861Z,101307.47
2023-02-07T05:32:24.333Z,101311.25
2023-02-07T05:34:50.781Z,101307.06
2023-02-07T05:37:17.243Z,101306.81
2023-02-07T05:39:43.683Z,101316.53
2023-02-07T05:42:10.148Z,101326.94
2023-02-07T05:44:36.658Z,101325.06
2023-02-07T05:47:03.055Z,101330.06
2023-02-07T05:49:29.510Z,101332.34
2023-02-07T05:51:56.427Z,101329.38
2023-02-07T05:54:22.949Z,101323.47
2023-02-07T05:56:49.368Z,101320.72
2023-02-07T05:59:15.785Z,101317.09
2023-02-07T06:01:42.171Z,101317.41
2023-02-07T06:04:08.692Z,101319.09
2023-02-07T06:06:35.576Z,101319.84
2023-02-07T06:09:02.021Z,101311.38
2023-02-07T06:11:28.421Z,101311.88
2023-02-07T06:13:55.030Z,101323.44
2023-02-07T06:16:21.580Z,101312.94
2023-02-07T06:18:47.988Z,101314.16
2023-02-07T06:21:15.676Z,101321.44
2023-02-07T06:23:42.113Z,101321.81
2023-02-07T06:26:08.834Z,101328.00
2023-02-07T06:28:35.282Z,101323.81
2023-02-07T06:31:01.756Z,101323.69
2023-02-07T06:33:28.867Z,101326.69
2023-02-07T06:35:55.343Z,101329.03
2023-02-07T06:38:21.883Z,101334.00
2023-02-07T06:40:48.288Z,101333.03
2023-02-07T06:43:14.685Z,101341.03
2023-02-07T06:45:41.192Z,101344.13
2023-02-07T06:48:07.674Z,101343.31
2023-02-07T06:50:34.229Z,101346.81
2023-02-07T06:53:01.187Z,101345.31
2023-02-07T06:55:27.692Z,101349.25
2023-02-07T06:57:54.261Z,101344.88
2023-02-07T07:00:21.018Z,101347.50
2023-02-07T07:02:47.545Z,101346.16
2023-02-07T07:05:16.192Z,101345.72
2023-02-07T07:07:42.968Z,101343.50
2023-02-07T07:10:09.508Z,101342.41
2023-02-07T07:12:36.116Z,101340.00
2023-02-07T07:15:02.708Z,101345.16
2023-02-07T07:17:29.143Z,101342.84
2023-02-07T07:19:55.779Z,101344.81
2023-02-07T07:22:22.425Z,101339.25
2023-02-07T07:24:49.273Z,101332.84
2023-02-07T07:27:15.704Z,101331.28
2023-02-07T07:29:42.330Z,101328.94
2023-02-07T07:32:09.352Z,101320.44
2023-02-07T07:34:35.960Z,101325.19
2023-02-07T07:37:02.733Z,101328.13
2023-02-07T07:39:29.248Z,101323.72
2023-02-07T07:41:57.360Z,101320.56
2023-02-07T07:44:23.886Z,101321.81
2023-02-07T07:46:50.367Z,101327.06
2023-02-07T07:49:16.830Z,101326.50
2023-02-07T07:51:43.174Z,101338.91
2023-02-07T07:54:09.835Z,101335.78
2023-02-07T07:56:36.371Z,101349.59
2023-02-07T07:59:05.927Z,101349.41
2023-02-07T08:01:35.383Z,101344.69
2023-02-07T08:04:01.939Z,101355.19
2023-02-07T08:06:28.412Z,101348.19
2023-02-07T08:08:54.846Z,101353.97
2023-02-07T08:11:21.915Z,101333.72
2023-02-07T08:13:48.487Z,101328.78
2023-02-07T08:16:15.150Z,101324.13
2023-02-07T08:18:41.792Z,101324.19
2023-02-07T08:21:08.244Z,101340.97
2023-02-07T08:23:34.743Z,101333.59
2023-02-07T08:26:01.514Z,101328.31
2023-02-07T08:28:28.123Z,101327.53
2023-02-07T08:30:54.602Z,101325.25
2023-02-07T08:33:21.036Z,101326.94
2023-02-07T08:35:47.522Z,101323.47
2023-02-07T08:38:13.941Z,101335.84
2023-02-07T08:40:40.667Z,101334.38
2023-02-07T08:43:07.320Z,101337.22
2023-02-07T08:45:33.830Z,101331.97
2023-02-07T08:48:00.322Z,101344.66
2023-02-07T08:50:26.724Z,101331.66
2023-02-07T08:52:53.288Z,101325.88
2023-02-07T08:55:19.933Z,101325.19
2023-02-07T08:57:46.796Z,101313.38
2023-02-07T09:00:13.273Z,101312.19
2023-02-07T09:02:39.858Z,101315.78
2023-02-07T09:05:06.576Z,101317.84
2023-02-07T09:07:33.481Z,101316.19
2023-02-07T09:09:59.999Z,101316.41
2023-02-07T09:12:26.784Z,101312.34
2023-02-07T09:14:53.332Z,101313.75
2023-02-07T09:17:21.314Z,101315.88
2023-02-07T09:19:49.948Z,101319.84
2023-02-07T09:22:16.448Z,101318.16
2023-02-07T09:24:43.042Z,101329.00
2023-02-07T09:27:09.488Z,101318.09
2023-02-07T09:29:36.026Z,101321.59
2023-02-07T09:32:02.497Z,101317.03
2023-02-07T09:34:29.067Z,101315.72
2023-02-07T09:36:55.878Z,101334.72
2023-02-07T09:39:24.369Z,101325.88
2023-02-07T09:41:51.034Z,101326.25
2023-02-07T09:44:17.901Z,101321.22
2023-02-07T09:46:44.695Z,101322.19
2023-02-07T09:49:11.172Z,101327.94
2023-02-07T09:51:37.776Z,101322.97
2023-02-07T09:54:04.197Z,101316.00
2023-02-07T09:56:30.733Z,101327.34
2023-02-07T09:58:57.374Z,101325.31
2023-02-07T10:01:24.183Z,101320.50
2023-02-07T10:03:50.835Z,101313.41
2023-02-07T10:06:18.765Z,101307.84
2023-02-07T10:08:45.899Z,101309.91
2023-02-07T10:11:12.883Z,101305.34
2023-02-07T10:13:39.667Z,101307.16
2023-02-07T10:16:06.173Z,101301.13
2023-02-07T10:18:32.876Z,101290.03
2023-02-07T10:20:59.697Z,101293.38
2023-02-07T10:23:26.266Z,101287.78
2023-02-07T10:25:53.069Z,101295.34
2023-02-07T10:28:19.820Z,101284.19
2023-02-07T10:30:46.471Z,101290.94
2023-02-07T10:33:17.063Z,101281.91
2023-02-07T10:35:43.910Z,101274.34
2023-02-07T10:38:10.774Z,101280.72
2023-02-07T10:40:37.723Z,101276.50
2023-02-07T10:43:04.632Z,101271.13
2023-02-07T10:45:32.126Z,101277.78
2023-02-07T10:47:58.881Z,101275.47
2023-02-07T10:50:30.097Z,101268.44
2023-02-07T10:52:57.116Z,101269.88
2023-02-07T10:55:23.531Z,101266.19
2023-02-07T10:57:54.278Z,101262.91
2023-02-07T11:00:26.237Z,101262.72
2023-02-07T11:02:52.869Z,101258.28
2023-02-07T11:05:19.995Z,101258.34
2023-02-07T11:07:48.131Z,101251.91
2023-02-07T11:10:14.998Z,101248.41
2023-02-07T11:12:41.465Z,101260.38
2023-02-07T11:15:07.939Z,101256.00
2023-02-07T11:17:34.553Z,101247.63
2023-02-07T11:20:01.120Z,101243.31
2023-02-07T11:22:27.651Z,101237.44
2023-02-07T11:24:54.117Z,101230.16
2023-02-07T11:27:20.658Z,101244.66
2023-02-07T11:29:47.429Z,101244.16
2023-02-07T11:32:14.088Z,101234.63
2023-02-07T11:34:40.605Z,101231.91
2023-02-07T11:37:07.542Z,101226.34
2023-02-07T11:39:33.961Z,101237.16
2023-02-07T11:42:00.572Z,101225.38
2023-02-07T11:44:28.989Z,101220.75
2023-02-07T11:46:56.234Z,101217.16
2023-02-07T11:49:22.907Z,101224.34
2023-02-07T11:51:49.388Z,101225.63
2023-02-07T11:54:16.009Z,101218.66
2023-02-07T11:56:42.450Z,101236.38
2023-02-07T11:59:08.987Z,101239.69
2023-02-07T12:01:35.577Z,101216.03
2023-02-07T12:04:02.182Z,101222.47
2023-02-07T12:06:29.177Z,101205.72
2023-02-07T12:08:55.795Z,101215.78
2023-02-07T12:11:22.338Z,101209.06
2023-02-07T12:13:48.781Z,101210.94
2023-02-07T12:16:15.689Z,101211.81
2023-02-07T12:18:42.461Z,101203.91
2023-02-07T12:21:08.886Z,101198.22
2023-02-07T12:23:42.284Z,101194.22
2023-02-07T12:26:09.669Z,101207.53
2023-02-07T12:28:36.411Z,101204.66
2023-02-07T12:31:04.597Z,101190.81
2023-02-07T12:33:32.103Z,101199.69
2023-02-07T12:35:59.017Z,101189.97
2023-02-07T12:38:25.927Z,101195.16
2023-02-07T12:40:52.409Z,101191.06
2023-02-07T12:43:18.901Z,101170.41
2023-02-07T12:45:47.805Z,101178.06
2023-02-07T12:48:14.378Z,101176.66
2023-02-07T12:50:41.193Z,101175.56
2023-02-07T12:53:07.768Z,101171.72
2023-02-07T12:55:34.390Z,101168.19
2023-02-07T12:58:01.766Z,101161.09
2023-02-07T13:00:28.255Z,101166.03
2023-02-07T13:02:54.856Z,101158.94
2023-02-07T13:05:21.490Z,101162.94
2023-02-07T13:07:48.102Z,101164.22
2023-02-07T13:10:14.880Z,101154.22
2023-02-07T13:12:41.524Z,101161.59
2023-02-07T13:15:08.066Z,101164.31
2023-02-07T13:17:34.465Z,101167.34
2023-02-07T13:20:00.951Z,101162.97
2023-02-07T13:22:27.636Z,101169.06
2023-02-07T13:24:54.116Z,101166.59
2023-02-07T13:27:20.591Z,101181.06
2023-02-07T13:29:47.123Z,101160.59
2023-02-07T13:32:13.704Z,101162.41
2023-02-07T13:34:40.411Z,101163.34
2023-02-07T13:37:16.320Z,101164.47
2023-02-07T13:39:43.503Z,101156.91
2023-02-07T13:42:10.175Z,101151.13
2023-02-07T13:44:36.882Z,101134.16
2023-02-07T13:47:03.300Z,101151.78
2023-02-07T13:49:31.180Z,101141.97
2023-02-07T13:51:57.620Z,101143.84
2023-02-07T13:54:24.116Z,101138.38
2023-02-07T13:56:50.618Z,101137.06
2023-02-07T13:59:17.333Z,101142.47
2023-02-07T14:01:44.070Z,101138.03
2023-02-07T14:04:10.845Z,101149.44
2023-02-07T14:06:37.312Z,101145.66
2023-02-07T14:09:03.707Z,101150.19
2023-02-07T14:11:30.081Z,101151.19
2023-02-07T14:13:56.716Z,101150.03
2023-02-07T14:16:23.386Z,101157.81
2023-02-07T14:18:49.930Z,101157.81
2023-02-07T14:21:16.346Z,101155.88
2023-02-07T14:23:43.007Z,101149.41
2023-02-07T14:26:09.733Z,101161.97
2023-02-07T14:28:36.324Z,101159.63
2023-02-07T14:31:02.965Z,101167.44
2023-02-07T14:33:29.453Z,101166.47
2023-02-07T14:35:55.870Z,101152.63
2023-02-07T14:38:22.376Z,101154.31
2023-02-07T14:40:49.035Z,101148.09
2023-02-07T14:43:16.108Z,101142.91
2023-02-07T14:45:45.051Z,101149.84
2023-02-07T14:48:11.712Z,101155.03
2023-02-07T14:50:38.381Z,101146.09
2023-02-07T14:53:04.906Z,101156.81
2023-02-07T14:55:32.621Z,101168.31
2023-02-07T14:57:59.262Z,101155.94
2023-02-07T15:00:25.685Z,101168.91
2023-02-07T15:02:52.269Z,101162.13
2023-02-07T15:05:18.869Z,101161.50
2023-02-07T15:07:45.636Z,101161.56
2023-02-07T15:10:12.107Z,101157.63
2023-02-07T15:12:38.628Z,101159.34
2023-02-07T15:15:07.170Z,101155.06
2023-02-07T15:17:43.995Z,101151.66
2023-02-07T15:20:11.040Z,101154.47
2023-02-07T15:22:39.058Z,101155.53
2023-02-07T15:25:05.798Z,101162.59
2023-02-07T15:27:32.393Z,101165.00
2023-02-07T15:29:58.825Z,101168.22
2023-02-07T15:32:25.828Z,101178.34
2023-02-07T15:34:52.719Z,101178.03
2023-02-07T15:37:19.872Z,101175.53
2023-02-07T15:39:48.990Z,101183.19
2023-02-07T15:42:15.441Z,101184.84
2023-02-07T15:44:42.325Z,101187.44
2023-02-07T15:47:08.965Z,101188.22
2023-02-07T15:49:35.411Z,101185.94
2023-02-07T15:52:01.905Z,101191.56
2023-02-07T15:54:29.206Z,101189.06
2023-02-07T15:56:57.282Z,101190.69
2023-02-07T15:59:23.810Z,101194.44
2023-02-07T16:01:50.374Z,101193.84
2023-02-07T16:04:16.870Z,101192.19
2023-02-07T16:06:43.851Z,101198.59
2023-02-07T16:09:10.265Z,101201.16
2023-02-07T16:11:36.962Z,101206.66
2023-02-07T16:14:03.729Z,101202.34
2023-02-07T16:16:30.476Z,101201.59
2023-02-07T16:18:57.004Z,101213.88
2023-02-07T16:21:23.560Z,101211.50
2023-02-07T16:23:50.094Z,101205.31
2023-02-07T16:26:16.684Z,101215.50
2023-02-07T16:28:43.536Z,101223.91
2023-02-07T16:31:10.770Z,101226.72
2023-02-07T16:33:39.905Z,101224.63
2023-02-07T16:36:07.172Z,101226.19
2023-02-07T16:38:33.725Z,101233.34
2023-02-07T16:41:00.161Z,101240.41
2023-02-07T16:43:26.571Z,101239.72
2023-02-07T16:45:53.420Z,101238.81
2023-02-07T16:48:19.838Z,101246.06
2023-02-07T16:50:46.303Z,101241.41
2023-02-07T16:53:13.064Z,101245.25
2023-02-07T16:55:39.583Z,101243.25
2023-02-07T16:58:06.090Z,101240.94
2023-02-07T17:00:32.631Z,101232.47
2023-02-07T17:02:59.362Z,101232.94
2023-02-07T17:05:26.078Z,101226.47
2023-02-07T17:07:52.600Z,101233.38
2023-02-07T17:10:19.904Z,101232.00
2023-02-07T17:12:46.652Z,101237.06
2023-02-07T17:15:14.260Z,101240.56
2023-02-07T17:17:40.739Z,101237.06
2023-02-07T17:20:08.307Z,101238.19
2023-02-07T17:22:34.851Z,101236.31
2023-02-07T17:25:01.531Z,101235.72
2023-02-07T17:27:28.043Z,101231.91
2023-02-07T17:29:55.168Z,101239.19
2023-02-07T17:32:23.769Z,101234.63
2023-02-07T17:34:50.635Z,101240.56
2023-02-07T17:37:17.174Z,101242.50
2023-02-07T17:39:44.117Z,101244.19
2023-02-07T17:42:11.159Z,101236.69
2023-02-07T17:44:38.208Z,101234.03
2023-02-07T17:47:05.128Z,101227.44
2023-02-07T17:49:32.319Z,101239.72
2023-02-07T17:51:58.914Z,101233.75
2023-02-07T17:54:26.708Z,101246.94
2023-02-07T17:56:54.593Z,101248.97
2023-02-07T17:59:22.972Z,101245.56
2023-02-07T18:01:50.229Z,101240.94
2023-02-07T18:04:17.338Z,101244.72
2023-02-07T18:06:44.355Z,101254.72
2023-02-07T18:09:11.326Z,101258.06
2023-02-07T18:11:38.311Z,101261.53
2023-02-07T18:14:05.341Z,101261.06
2023-02-07T18:16:31.855Z,101260.75
2023-02-07T18:18:58.806Z,101268.41
2023-02-07T18:21:30.214Z,101271.59
2023-02-07T18:23:56.783Z,101263.06
2023-02-07T18:26:23.860Z,101267.38
2023-02-07T18:28:51.955Z,101271.28
2023-02-07T18:31:21.023Z,101256.16
2023-02-07T18:33:47.709Z,101268.91
2023-02-07T18:36:15.431Z,101264.75
2023-02-07T18:38:42.353Z,101269.66
2023-02-07T18:41:08.900Z,101268.44
2023-02-07T18:43:36.866Z,101259.97
2023-02-07T18:46:04.765Z,101266.50
2023-02-07T18:48:31.849Z,101288.53
2023-02-07T18:50:58.822Z,101280.28
2023-02-07T18:53:26.422Z,101273.16
2023-02-07T18:55:56.494Z,101274.84
2023-02-07T18:58:23.585Z,101275.84
2023-02-07T19:00:50.451Z,101274.84
2023-02-07T19:03:17.559Z,101280.81
2023-02-07T19:05:45.662Z,101295.69
2023-02-07T19:08:12.804Z,101287.75
2023-02-07T19:10:40.537Z,101293.44
2023-02-07T19:13:07.974Z,101304.69
2023-02-07T19:15:34.884Z,101291.81
2023-02-07T19:18:07.307Z,101296.19
2023-02-07T19:20:36.731Z,101306.28
2023-02-07T19:23:06.952Z,101315.31
2023-02-07T19:25:34.035Z,101316.53
2023-02-07T19:28:02.188Z,101306.81
2023-02-07T19:30:34.414Z,101313.41
2023-02-07T19:33:01.500Z,101323.28
2023-02-07T19:35:28.664Z,101338.38
2023-02-07T19:37:56.219Z,101307.41
2023-02-07T19:40:23.218Z,101310.22
2023-02-07T19:42:50.167Z,101328.78
2023-02-07T19:45:17.394Z,101334.31
2023-02-07T19:47:45.521Z,101329.84
2023-02-07T19:50:12.899Z,101331.78
2023-02-07T19:52:40.033Z,101323.00
2023-02-07T19:55:07.502Z,101329.88
2023-02-07T19:57:34.448Z,101341.34
2023-02-07T20:00:02.173Z,101326.97
2023-02-07T20:02:29.471Z,101321.34
2023-02-07T20:05:00.261Z,101324.66
2023-02-07T20:07:27.446Z,101325.16
2023-02-07T20:09:54.879Z,101317.97
2023-02-07T20:12:21.524Z,101321.81
2023-02-07T20:14:49.515Z,101324.06
2023-02-07T20:17:16.932Z,101326.94
2023-02-07T20:19:44.199Z,101320.72
2023-02-07T20:22:11.726Z,101318.59
2023-02-07T20:24:39.756Z,101327.78
2023-02-07T20:27:06.822Z,101324.19
2023-02-07T20:29:35.064Z,101324.06
2023-02-07T20:32:02.299Z,101322.47
2023-02-07T20:34:30.568Z,101328.78
2023-02-07T20:36:57.986Z,101331.41
2023-02-07T20:39:25.573Z,101327.44
2023-02-07T20:41:52.575Z,101334.44
2023-02-07T20:44:19.722Z,101336.84
2023-02-07T20:46:46.704Z,101338.03
2023-02-07T20:49:14.466Z,101335.66
2023-02-07T20:51:41.835Z,101338.78
2023-02-07T20:54:10.142Z,101330.81
2023-02-07T20:56:37.598Z,101318.53
2023-02-07T20:59:04.966Z,101335.38
2023-02-07T21:01:34.263Z,101341.03
2023-02-07T21:04:01.118Z,101340.13
2023-02-07T21:06:28.252Z,101350.97
2023-02-07T21:08:54.913Z,101343.91
2023-02-07T21:11:22.724Z,101333.16
2023-02-07T21:13:53.972Z,101347.97
2023-02-07T21:16:21.016Z,101343.50
2023-02-07T21:18:48.059Z,101338.19
2023-02-07T21:21:14.636Z,101340.63
2023-02-07T21:23:41.685Z,101351.50
2023-02-07T21:26:09.248Z,101361.22
2023-02-07T21:28:35.835Z,101354.78
2023-02-07T21:31:02.386Z,101358.19
2023-02-07T21:33:32.052Z,101359.25
2023-02-07T21:35:58.598Z,101350.75
2023-02-07T21:38:25.090Z,101349.84
2023-02-07T21:40:51.834Z,101360.41
2023-02-07T21:43:18.287Z,101359.97
2023-02-07T21:45:44.858Z,101360.06
2023-02-07T21:48:11.344Z,101354.34
2023-02-07T21:50:38.104Z,101371.81
2023-02-07T21:53:07.735Z,101361.22
2023-02-07T21:55:34.272Z,101360.13
2023-02-07T21:58:00.822Z,101371.56
2023-02-07T22:00:27.384Z,101371.03
2023-02-07T22:02:53.842Z,101370.53
2023-02-07T22:05:20.557Z,101368.00
2023-02-07T22:07:47.466Z,101370.19
2023-02-07T22:10:14.151Z,101362.94
2023-02-07T22:12:41.050Z,101353.34
2023-02-07T22:15:07.586Z,101356.16
2023-02-07T22:17:34.180Z,101358.75
2023-02-07T22:20:00.628Z,101369.03
2023-02-07T22:22:27.351Z,101369.16
2023-02-07T22:24:53.928Z,101364.31
2023-02-07T22:27:20.459Z,101367.56
2023-02-07T22:29:47.069Z,101360.63
2023-02-07T22:32:13.612Z,101361.91
2023-02-07T22:34:40.735Z,101362.81
2023-02-07T22:37:07.295Z,101356.03
2023-02-07T22:39:33.952Z,101362.81
2023-02-07T22:42:00.750Z,101366.53
2023-02-07T22:44:27.424Z,101367.03
2023-02-07T22:46:56.456Z,101368.81
2023-02-07T22:49:24.208Z,101360.72
2023-02-07T22:51:50.993Z,101358.97
2023-02-07T22:54:17.479Z,101369.06
2023-02-07T22:56:45.895Z,101360.00
2023-02-07T22:59:14.007Z,101358.41
2023-02-07T23:01:42.678Z,101357.53
2023-02-07T23:04:09.119Z,101360.06
2023-02-07T23:06:36.360Z,101362.94
2023-02-07T23:09:05.781Z,101361.72
2023-02-07T23:11:39.971Z,101358.94
2023-02-07T23:14:06.472Z,101353.19
2023-02-07T23:16:33.378Z,101356.91
2023-02-07T23:19:00.873Z,101358.81
2023-02-07T23:21:27.323Z,101351.25
2023-02-07T23:23:53.768Z,101351.28
2023-02-07T23:26:20.448Z,101347.41
2023-02-07T23:28:46.927Z,101352.19
2023-02-07T23:31:13.477Z,101356.31
2023-02-07T23:33:40.190Z,101358.97
2023-02-07T23:36:06.853Z,101353.13
2023-02-07T23:38:33.408Z,101349.91
2023-02-07T23:41:00.041Z,101341.69
2023-02-07T23:43:26.484Z,101344.94
2023-02-07T23:45:53.175Z,101340.81
2023-02-07T23:48:19.784Z,101339.16
2023-02-07T23:50:46.826Z,101339.69
2023-02-07T23:53:13.704Z,101341.47
2023-02-07T23:55:40.171Z,101340.91
2023-02-07T23:58:06.630Z,101345.63
